Absaraka, North Dakota
Current Conditions -  °F | °C
As of 2:53 PM on Thursday 27 Nov 2014 (Local Time) from KFAR Reporting Station
Broken Clouds Broken Clouds  
Wind Chill: -9°   Ceiling: 12000
Heat Index:   Visibility: 10mi
Dew Point: -4°   Wind: 13mph
Humidity: 61%   Direction: 160°SSE
Pressure: 30.34"   Gusts: NA
Location:  46.98°N, 97.39°W
Report Text: KFAR 272053Z 16011KT 10SM BKN120 M14/M20 A3034 RMK AO2 SLP301 T11391200 58034
Loading
Personal Weather Stations






























Interactive Weather Map New forecast layout! Learn more

10-Day Weather Forecast

Advertisements
Track Severe Weather on mobile